Time;durP1;ratioP1;P1;durP2;ratioP2;P2;SDS_P1;SDS_P2;PMS_P1;PMS_P2;Temp;Humidity;BMP_temperature;BMP_pressure;BME280_temperature;BME280_humidity;BME280_pressure;Samples;Min_cycle;Max_cycle;Signal;HPM_P1;HPM_P2
2023/01/26 00:01:30;;;;;;;46.67;20.30;;;;;;;;;;5041971;28;20183;-81
2023/01/26 00:03:56;;;;;;;46.05;19.90;;;;;;;;;;5058009;28;20425;-81
2023/01/26 00:06:23;;;;;;;44.45;18.88;;;;;;;;;;5058158;28;21827;-80
2023/01/26 00:08:50;;;;;;;51.00;21.27;;;;;;;;;;5058405;28;20219;-80
2023/01/26 00:11:17;;;;;;;45.33;20.00;;;;;;;;;;5076884;28;20632;-80
2023/01/26 00:13:44;;;;;;;43.60;19.50;;;;;;;;;;5076182;28;20224;-80
2023/01/26 00:16:11;;;;;;;45.65;20.48;;;;;;;;;;5058365;28;20184;-80
2023/01/26 00:18:37;;;;;;;51.35;21.67;;;;;;;;;;5058396;28;20271;-80
2023/01/26 00:21:04;;;;;;;41.85;20.48;;;;;;;;;;5076104;28;20226;-80
2023/01/26 00:23:30;;;;;;;56.13;22.23;;;;;;;;;;5076428;28;20237;-80
2023/01/26 00:25:56;;;;;;;52.88;22.50;;;;;;;;;;5058037;28;20527;-80
2023/01/26 00:28:22;;;;;;;42.63;18.63;;;;;;;;;;5057796;28;20192;-80
2023/01/26 00:30:48;;;;;;;56.80;22.77;;;;;;;;;;5041909;28;20448;-80
2023/01/26 00:33:15;;;;;;;49.53;21.58;;;;;;;;;;5058421;28;20204;-80
2023/01/26 00:35:43;;;;;;;45.92;21.17;;;;;;;;;;5058252;28;20177;-80
2023/01/26 00:38:10;;;;;;;43.80;20.63;;;;;;;;;;5057942;28;20755;-80
2023/01/26 00:40:37;;;;;;;49.35;24.67;;;;;;;;;;5076273;28;20192;-80
2023/01/26 00:43:03;;;;;;;47.17;22.35;;;;;;;;;;5057484;28;20268;-80
2023/01/26 00:45:29;;;;;;;55.78;23.17;;;;;;;;;;5057338;28;20268;-80
2023/01/26 00:47:55;;;;;;;42.83;19.25;;;;;;;;;;5041425;28;20588;-80
2023/01/26 00:50:21;;;;;;;47.27;20.33;;;;;;;;;;5057584;28;20274;-81
2023/01/26 00:52:46;;;;;;;47.60;20.05;;;;;;;;;;5056921;28;20462;-80
2023/01/26 00:55:13;;;;;;;52.57;21.20;;;;;;;;;;5058116;28;20177;-80
2023/01/26 00:57:39;;;;;;;49.03;21.98;;;;;;;;;;5075917;28;20403;-80
2023/01/26 01:00:06;;;;;;;48.13;21.17;;;;;;;;;;5041164;28;20529;-80
2023/01/26 01:02:32;;;;;;;42.47;19.30;;;;;;;;;;5057744;28;20177;-80
2023/01/26 01:04:58;;;;;;;57.35;21.25;;;;;;;;;;5058097;28;20184;-80
2023/01/26 01:07:24;;;;;;;57.90;22.50;;;;;;;;;;5057912;28;20232;-80
2023/01/26 01:09:50;;;;;;;42.43;18.10;;;;;;;;;;5057333;28;20847;-80
2023/01/26 01:12:16;;;;;;;47.40;20.80;;;;;;;;;;5041474;28;20471;-80
2023/01/26 01:14:42;;;;;;;47.90;21.63;;;;;;;;;;5057764;28;20181;-80
2023/01/26 01:17:08;;;;;;;50.40;22.13;;;;;;;;;;5058184;28;20183;-80
2023/01/26 01:19:34;;;;;;;51.92;22.13;;;;;;;;;;5041480;28;20180;-80
2023/01/26 01:22:00;;;;;;;42.33;20.43;;;;;;;;;;5057813;28;20214;-80
2023/01/26 01:24:26;;;;;;;44.63;20.58;;;;;;;;;;5058139;28;20962;-80
2023/01/26 01:26:52;;;;;;;54.70;21.63;;;;;;;;;;5057955;28;20285;-80
2023/01/26 01:29:18;;;;;;;46.07;21.60;;;;;;;;;;5041108;28;20936;-80
2023/01/26 01:31:44;;;;;;;55.22;21.60;;;;;;;;;;5057383;28;20399;-81
2023/01/26 01:34:10;;;;;;;42.28;18.50;;;;;;;;;;5041127;28;20184;-80
2023/01/26 01:36:36;;;;;;;46.28;19.40;;;;;;;;;;5041350;28;20272;-80
2023/01/26 01:39:02;;;;;;;45.87;19.87;;;;;;;;;;5040968;28;20219;-80
2023/01/26 01:41:28;;;;;;;45.95;19.90;;;;;;;;;;5057586;28;20415;-80
2023/01/26 01:44:13;;;;;;;49.28;21.85;;;;;;;;;;5040938;28;20280;-80
2023/01/26 01:46:41;;;;;;;46.63;20.00;;;;;;;;;;5057051;28;20181;-80
2023/01/26 01:49:07;;;;;;;45.55;20.65;;;;;;;;;;5057062;28;20536;-80
2023/01/26 01:51:35;;;;;;;39.00;17.17;;;;;;;;;;5057606;28;20176;-80
2023/01/26 01:54:03;;;;;;;38.03;19.15;;;;;;;;;;5075451;28;20411;-80
2023/01/26 01:56:29;;;;;;;49.78;20.73;;;;;;;;;;5057550;28;20177;-80
2023/01/26 01:58:57;;;;;;;48.35;19.85;;;;;;;;;;5040744;28;20513;-80
2023/01/26 02:01:24;;;;;;;45.72;20.27;;;;;;;;;;5057019;28;20529;-80
2023/01/26 02:03:51;;;;;;;51.60;23.50;;;;;;;;;;5074803;28;20673;-80
2023/01/26 02:06:30;;;;;;;56.88;22.42;;;;;;;;;;5077424;28;20226;-80
2023/01/26 02:08:56;;;;;;;45.67;23.27;;;;;;;;;;5061081;28;20183;-80
2023/01/26 02:11:29;;;;;;;44.63;20.75;;;;;;;;;;5044413;28;20266;-80
2023/01/26 02:13:56;;;;;;;47.08;20.83;;;;;;;;;;5060371;28;20648;-80
2023/01/26 02:16:22;;;;;;;51.70;22.35;;;;;;;;;;5061330;28;20220;-80
2023/01/26 02:18:48;;;;;;;55.33;20.67;;;;;;;;;;5043887;28;20184;-80
2023/01/26 02:21:18;;;;;;;54.13;21.17;;;;;;;;;;5078612;28;20412;-80
2023/01/26 02:24:03;;;;;;;48.47;19.73;;;;;;;;;;5078947;28;20720;-80
2023/01/26 02:26:31;;;;;;;45.95;20.83;;;;;;;;;;5060624;28;20518;-80
2023/01/26 02:28:58;;;;;;;48.08;20.85;;;;;;;;;;5060147;28;20239;-80
2023/01/26 02:31:24;;;;;;;42.83;18.33;;;;;;;;;;5061592;28;20648;-80
2023/01/26 02:33:51;;;;;;;45.72;19.55;;;;;;;;;;5043790;28;20221;-80
2023/01/26 02:36:22;;;;;;;49.17;21.52;;;;;;;;;;5060969;28;20189;-80
2023/01/26 02:38:51;;;;;;;49.55;20.38;;;;;;;;;;5060381;28;20166;-80
2023/01/26 02:42:37;;;;;;;48.47;20.02;;;;;;;;;;5078778;28;20194;-80
2023/01/26 02:44:04;;;;;;;48.03;19.60;;;;;;;;;;5063203;28;20184;-80
2023/01/26 02:46:30;;;;;;;40.25;16.88;;;;;;;;;;5060596;28;20185;-80
2023/01/26 02:51:41;;;;;;;48.00;21.27;;;;;;;;;;5063199;28;20550;-80
2023/01/26 02:54:07;;;;;;;44.67;18.38;;;;;;;;;;5043958;28;20214;-80
2023/01/26 02:56:38;;;;;;;42.00;17.60;;;;;;;;;;5079032;28;20264;-80
2023/01/26 02:59:04;;;;;;;46.83;21.88;;;;;;;;;;5060416;28;20395;-80
2023/01/26 03:01:30;;;;;;;35.33;19.10;;;;;;;;;;5060789;28;20176;-80
2023/01/26 03:03:56;;;;;;;43.50;19.10;;;;;;;;;;5060217;28;20219;-80
2023/01/26 03:06:22;;;;;;;43.67;18.17;;;;;;;;;;5044175;28;20181;-80
2023/01/26 03:08:48;;;;;;;45.13;19.38;;;;;;;;;;5060681;28;20391;-80
2023/01/26 03:11:14;;;;;;;50.22;20.35;;;;;;;;;;5077347;28;20181;-80
2023/01/26 03:13:40;;;;;;;41.13;18.00;;;;;;;;;;5043506;28;20255;-80
2023/01/26 03:16:07;;;;;;;45.70;22.73;;;;;;;;;;5060016;28;20416;-80
2023/01/26 03:29:32;;;;;;;42.55;19.25;;;;;;;;;;5077890;28;20253;-80
2023/01/26 03:31:58;;;;;;;45.00;18.52;;;;;;;;;;5077114;28;20205;-80
2023/01/26 03:34:25;;;;;;;39.70;18.05;;;;;;;;;;5059413;28;20184;-80
2023/01/26 03:36:51;;;;;;;42.72;18.48;;;;;;;;;;5059638;28;20222;-80
2023/01/26 03:58:32;;;;;;;41.05;16.83;;;;;;;;;;5061091;28;20182;-80
2023/01/26 04:00:58;;;;;;;37.00;16.40;;;;;;;;;;5076787;28;20177;-80
2023/01/26 04:08:53;;;;;;;42.38;18.58;;;;;;;;;;5061056;28;20186;-80
2023/01/26 04:11:19;;;;;;;50.17;20.30;;;;;;;;;;5058733;28;20199;-80
2023/01/26 04:21:59;;;;;;;44.85;18.75;;;;;;;;;;5061456;28;20212;-80
2023/01/26 04:24:26;;;;;;;41.55;17.00;;;;;;;;;;5041564;28;20621;-80
2023/01/26 04:26:51;;;;;;;37.20;18.98;;;;;;;;;;5058722;28;20529;-80
2023/01/26 04:29:18;;;;;;;45.95;19.02;;;;;;;;;;5057460;28;20180;-80
2023/01/26 04:31:44;;;;;;;45.53;19.48;;;;;;;;;;5058545;28;20293;-80
2023/01/26 04:34:11;;;;;;;45.28;18.73;;;;;;;;;;5076146;28;20264;-80
2023/01/26 04:36:37;;;;;;;44.30;18.27;;;;;;;;;;5076328;28;20180;-80
2023/01/26 04:39:04;;;;;;;39.97;18.63;;;;;;;;;;5075695;28;20181;-80
2023/01/26 04:41:31;;;;;;;35.67;16.63;;;;;;;;;;5075596;28;20180;-80
2023/01/26 04:43:57;;;;;;;40.67;18.80;;;;;;;;;;5075965;28;20169;-80
2023/01/26 04:46:23;;;;;;;38.38;15.68;;;;;;;;;;5057848;28;20188;-80
2023/01/26 04:48:49;;;;;;;39.78;17.15;;;;;;;;;;5058923;28;20172;-80
2023/01/26 04:51:18;;;;;;;39.85;17.77;;;;;;;;;;5057880;28;20295;-80
2023/01/26 04:53:45;;;;;;;38.15;17.50;;;;;;;;;;5057748;28;20216;-80
2023/01/26 04:56:17;;;;;;;40.72;18.70;;;;;;;;;;5075851;28;20503;-80
2023/01/26 04:58:43;;;;;;;44.78;17.70;;;;;;;;;;5058542;28;20512;-80
2023/01/26 05:01:09;;;;;;;42.78;18.00;;;;;;;;;;5041201;28;20275;-80
2023/01/26 05:03:35;;;;;;;34.65;15.95;;;;;;;;;;5041394;28;20305;-80
2023/01/26 05:06:01;;;;;;;44.03;17.77;;;;;;;;;;5057159;28;20199;-80
2023/01/26 05:08:27;;;;;;;37.17;17.70;;;;;;;;;;5037366;28;20618;-80
2023/01/26 05:10:54;;;;;;;30.02;16.70;;;;;;;;;;5056121;28;20216;-80
2023/01/26 05:13:20;;;;;;;31.60;14.10;;;;;;;;;;5038523;28;20217;-80
2023/01/26 05:15:46;;;;;;;38.25;17.35;;;;;;;;;;5054826;28;20173;-80
2023/01/26 05:18:12;;;;;;;38.13;17.02;;;;;;;;;;5054746;28;20169;-80
2023/01/26 05:20:38;;;;;;;40.70;16.83;;;;;;;;;;5040490;28;20533;-80
2023/01/26 05:23:04;;;;;;;32.72;16.52;;;;;;;;;;5039815;28;20185;-80
2023/01/26 05:25:31;;;;;;;33.80;14.57;;;;;;;;;;5055776;28;20181;-80
2023/01/26 05:27:57;;;;;;;33.38;15.63;;;;;;;;;;5055296;28;20174;-80
2023/01/26 05:30:23;;;;;;;35.83;15.43;;;;;;;;;;5038535;28;20216;-80
2023/01/26 05:32:49;;;;;;;30.92;15.10;;;;;;;;;;5055511;28;20205;-80
2023/01/26 05:35:15;;;;;;;32.75;16.10;;;;;;;;;;5054167;28;20235;-80
2023/01/26 05:37:41;;;;;;;35.17;15.73;;;;;;;;;;5037234;28;20212;-81
2023/01/26 05:40:09;;;;;;;33.30;14.35;;;;;;;;;;5056131;28;20238;-80
2023/01/26 05:42:35;;;;;;;29.52;15.23;;;;;;;;;;5058340;28;20185;-80
2023/01/26 05:45:01;;;;;;;30.75;13.38;;;;;;;;;;5058903;28;20182;-81
2023/01/26 05:47:27;;;;;;;31.08;14.15;;;;;;;;;;5041824;28;20533;-80
2023/01/26 05:49:53;;;;;;;35.08;15.18;;;;;;;;;;5058033;28;20182;-80
2023/01/26 05:52:20;;;;;;;33.72;14.50;;;;;;;;;;5057714;28;20202;-80
2023/01/26 05:54:46;;;;;;;35.92;15.85;;;;;;;;;;5057524;28;20275;-80
2023/01/26 05:57:12;;;;;;;25.50;13.85;;;;;;;;;;5052908;28;20178;-81
2023/01/26 05:59:39;;;;;;;39.75;14.55;;;;;;;;;;5070935;28;20279;-81
2023/01/26 06:02:05;;;;;;;28.00;14.30;;;;;;;;;;5038842;28;20174;-80
2023/01/26 06:04:31;;;;;;;25.95;13.00;;;;;;;;;;5071153;28;20236;-80
2023/01/26 06:06:59;;;;;;;30.55;14.88;;;;;;;;;;5037421;28;20225;-80
2023/01/26 06:09:25;;;;;;;30.70;16.45;;;;;;;;;;5070413;28;20181;-80
2023/01/26 06:11:51;;;;;;;26.55;13.38;;;;;;;;;;5038673;28;20162;-80
2023/01/26 06:14:17;;;;;;;33.03;15.95;;;;;;;;;;5054119;28;20186;-80
2023/01/26 06:16:43;;;;;;;30.35;14.95;;;;;;;;;;5071120;28;20542;-80
2023/01/26 06:19:10;;;;;;;28.48;15.02;;;;;;;;;;5039027;28;20186;-80
2023/01/26 06:21:36;;;;;;;29.02;14.05;;;;;;;;;;5070896;28;20598;-80
2023/01/26 06:24:02;;;;;;;25.17;14.13;;;;;;;;;;5070831;28;20221;-81
2023/01/26 06:26:28;;;;;;;33.47;15.20;;;;;;;;;;5071153;28;20174;-80
2023/01/26 06:28:55;;;;;;;35.25;16.25;;;;;;;;;;5070618;28;20232;-80
2023/01/26 06:31:23;;;;;;;32.67;16.05;;;;;;;;;;5070509;28;20178;-80
2023/01/26 06:33:49;;;;;;;32.50;15.15;;;;;;;;;;5070492;28;20202;-80
2023/01/26 06:36:15;;;;;;;27.92;13.95;;;;;;;;;;5069969;28;20182;-81
2023/01/26 06:38:49;;;;;;;35.47;17.13;;;;;;;;;;5070888;28;20174;-80
2023/01/26 06:41:15;;;;;;;42.03;16.08;;;;;;;;;;5070689;28;20184;-80
2023/01/26 06:43:44;;;;;;;39.85;15.73;;;;;;;;;;5070907;28;20175;-80
2023/01/26 06:46:10;;;;;;;34.72;15.35;;;;;;;;;;5070547;28;20178;-80
2023/01/26 06:48:37;;;;;;;30.60;16.00;;;;;;;;;;5067881;28;20403;-80
2023/01/26 06:51:23;;;;;;;31.52;14.68;;;;;;;;;;5031908;28;20523;-80
2023/01/26 06:53:56;;;;;;;37.03;15.90;;;;;;;;;;5000925;28;20745;-81
2023/01/26 06:56:23;;;;;;;37.35;15.38;;;;;;;;;;5033273;28;20181;-81
2023/01/26 06:58:49;;;;;;;33.67;16.45;;;;;;;;;;5065595;28;20178;-80
2023/01/26 07:01:16;;;;;;;33.25;17.98;;;;;;;;;;5054285;28;20187;-81
2023/01/26 07:03:42;;;;;;;34.42;15.80;;;;;;;;;;5049703;28;20183;-80
2023/01/26 07:06:11;;;;;;;39.50;16.73;;;;;;;;;;5050576;28;20217;-80
2023/01/26 07:08:37;;;;;;;40.65;17.35;;;;;;;;;;5053648;28;20192;-80
2023/01/26 07:11:03;;;;;;;38.80;17.60;;;;;;;;;;5053567;28;20183;-81
2023/01/26 07:13:29;;;;;;;34.70;14.65;;;;;;;;;;5052804;28;20242;-80
2023/01/26 07:16:02;;;;;;;33.83;15.48;;;;;;;;;;5053349;28;20490;-80
2023/01/26 07:18:28;;;;;;;35.38;16.33;;;;;;;;;;5037785;28;20210;-80
2023/01/26 07:20:54;;;;;;;39.23;16.83;;;;;;;;;;5036801;28;20516;-80
2023/01/26 07:23:20;;;;;;;40.97;16.73;;;;;;;;;;5052919;28;20466;-81
2023/01/26 07:25:46;;;;;;;36.20;17.42;;;;;;;;;;5036190;28;20908;-80
2023/01/26 07:28:12;;;;;;;38.05;16.73;;;;;;;;;;5037015;28;20206;-80
2023/01/26 07:30:38;;;;;;;40.03;17.17;;;;;;;;;;5052329;28;20198;-80
2023/01/26 07:33:04;;;;;;;31.85;16.52;;;;;;;;;;5036168;28;20472;-81
2023/01/26 07:35:30;;;;;;;38.17;16.27;;;;;;;;;;5052520;28;20178;-80
2023/01/26 07:37:57;;;;;;;37.40;17.73;;;;;;;;;;5052334;28;20428;-80
2023/01/26 07:40:23;;;;;;;39.22;16.98;;;;;;;;;;5052279;28;20232;-81
2023/01/26 07:42:49;;;;;;;39.72;17.35;;;;;;;;;;5052488;28;20233;-80
2023/01/26 07:45:18;;;;;;;35.72;16.52;;;;;;;;;;5035650;28;20183;-80
2023/01/26 07:47:44;;;;;;;40.45;19.98;;;;;;;;;;5037264;28;20166;-80
2023/01/26 07:50:12;;;;;;;43.38;19.08;;;;;;;;;;5035038;28;20261;-81
2023/01/26 07:52:37;;;;;;;37.78;16.95;;;;;;;;;;5034820;28;20253;-80
2023/01/26 07:55:04;;;;;;;37.13;17.43;;;;;;;;;;5052733;28;20172;-80
2023/01/26 07:57:30;;;;;;;41.67;17.88;;;;;;;;;;5037484;28;20450;-80
2023/01/26 07:59:56;;;;;;;41.15;17.88;;;;;;;;;;5052804;28;20178;-80
2023/01/26 08:02:22;;;;;;;45.67;17.30;;;;;;;;;;5052334;28;20241;-81
2023/01/26 08:04:48;;;;;;;37.38;17.80;;;;;;;;;;5036779;28;20175;-80
2023/01/26 08:07:14;;;;;;;36.33;17.92;;;;;;;;;;5034740;28;20238;-80
2023/01/26 08:09:40;;;;;;;38.60;18.30;;;;;;;;;;5052408;28;20174;-80
2023/01/26 08:12:06;;;;;;;40.97;18.30;;;;;;;;;;5052118;28;20257;-80
2023/01/26 08:14:32;;;;;;;38.38;16.30;;;;;;;;;;5034975;28;20180;-81
2023/01/26 08:16:58;;;;;;;37.03;18.02;;;;;;;;;;5052149;28;20213;-80
2023/01/26 08:19:24;;;;;;;40.65;17.52;;;;;;;;;;5044138;28;20177;-81
2023/01/26 08:21:52;;;;;;;45.47;17.07;;;;;;;;;;5067477;28;20237;-80
2023/01/26 08:24:18;;;;;;;47.15;19.83;;;;;;;;;;5076095;28;20419;-79
2023/01/26 08:26:44;;;;;;;49.20;19.45;;;;;;;;;;5041980;28;20629;-79
2023/01/26 08:29:09;;;;;;;42.30;18.27;;;;;;;;;;5058108;28;20284;-81
2023/01/26 08:31:36;;;;;;;40.97;18.67;;;;;;;;;;5041876;28;20634;-80
2023/01/26 08:34:02;;;;;;;43.15;18.13;;;;;;;;;;5058731;28;20469;-79
2023/01/26 08:36:28;;;;;;;46.83;18.95;;;;;;;;;;5057945;28;20507;-80
2023/01/26 08:38:54;;;;;;;40.33;17.88;;;;;;;;;;5057938;28;20263;-80
2023/01/26 08:41:20;;;;;;;48.03;21.17;;;;;;;;;;5057583;28;20173;-83
2023/01/26 08:43:46;;;;;;;53.42;19.17;;;;;;;;;;5057784;28;20415;-86
2023/01/26 08:46:12;;;;;;;42.85;18.42;;;;;;;;;;5056969;28;20192;-78
2023/01/26 08:48:38;;;;;;;51.97;21.10;;;;;;;;;;5041053;28;20180;-78
2023/01/26 08:51:06;;;;;;;50.47;19.85;;;;;;;;;;5057517;28;20173;-78
2023/01/26 08:53:32;;;;;;;45.53;20.55;;;;;;;;;;5056844;28;20201;-78
2023/01/26 08:56:02;;;;;;;52.63;21.30;;;;;;;;;;5040469;28;20313;-78
2023/01/26 08:58:28;;;;;;;53.75;20.42;;;;;;;;;;5074628;28;20250;-78
2023/01/26 09:00:54;;;;;;;45.38;20.13;;;;;;;;;;5057326;28;20173;-78
2023/01/26 09:03:20;;;;;;;51.05;20.40;;;;;;;;;;5056902;28;20208;-78
2023/01/26 09:05:46;;;;;;;58.95;24.08;;;;;;;;;;5057371;28;20195;-78
2023/01/26 09:08:12;;;;;;;49.97;20.10;;;;;;;;;;5075311;28;20262;-80
2023/01/26 09:10:38;;;;;;;55.90;21.85;;;;;;;;;;5041051;28;20263;-78
2023/01/26 09:13:04;;;;;;;55.03;21.25;;;;;;;;;;5057168;28;20231;-78
2023/01/26 09:15:30;;;;;;;59.75;21.60;;;;;;;;;;5080336;28;20239;-78
2023/01/26 09:17:56;;;;;;;54.08;20.27;;;;;;;;;;5063955;28;20176;-78
2023/01/26 09:20:22;;;;;;;48.45;20.30;;;;;;;;;;5047217;28;20181;-78
2023/01/26 09:22:48;;;;;;;55.40;20.17;;;;;;;;;;5082201;28;20322;-78
2023/01/26 09:25:15;;;;;;;57.17;21.33;;;;;;;;;;5063865;28;20641;-79
2023/01/26 09:27:41;;;;;;;52.63;20.13;;;;;;;;;;5064084;28;20547;-78
2023/01/26 09:30:07;;;;;;;55.05;21.42;;;;;;;;;;5047500;28;20226;-78
2023/01/26 09:32:34;;;;;;;53.55;20.85;;;;;;;;;;5046869;28;20577;-79
2023/01/26 09:34:59;;;;;;;50.97;20.13;;;;;;;;;;5081915;28;20322;-78
2023/01/26 09:37:26;;;;;;;63.35;22.73;;;;;;;;;;5082333;28;20212;-78
2023/01/26 09:39:51;;;;;;;54.03;19.75;;;;;;;;;;5063716;28;20219;-78
2023/01/26 09:42:27;;;;;;;58.83;21.30;;;;;;;;;;5047299;28;20184;-79
2023/01/26 09:44:59;;;;;;;64.53;22.10;;;;;;;;;;5063968;28;20578;-78
2023/01/26 09:47:28;;;;;;;59.85;21.58;;;;;;;;;;5081096;28;20565;-78
2023/01/26 09:49:56;;;;;;;50.30;20.75;;;;;;;;;;5063478;28;20181;-78
2023/01/26 09:52:26;;;;;;;61.55;24.15;;;;;;;;;;5063714;28;20559;-78
2023/01/26 09:54:53;;;;;;;53.13;21.27;;;;;;;;;;5082418;28;20164;-78
2023/01/26 09:57:38;;;;;;;54.63;23.60;;;;;;;;;;5046972;28;20198;-78
2023/01/26 10:00:10;;;;;;;58.75;21.52;;;;;;;;;;5063265;28;20229;-78
2023/01/26 10:02:46;;;;;;;56.33;21.48;;;;;;;;;;5062998;28;20180;-78
2023/01/26 10:05:22;;;;;;;56.70;20.77;;;;;;;;;;5064378;28;20170;-79
2023/01/26 10:07:48;;;;;;;50.53;21.20;;;;;;;;;;5064216;28;20239;-79
2023/01/26 10:10:25;;;;;;;54.28;20.95;;;;;;;;;;5047487;28;20180;-79
2023/01/26 10:12:52;;;;;;;59.58;22.08;;;;;;;;;;5063687;28;20672;-78
2023/01/26 10:15:27;;;;;;;54.08;20.98;;;;;;;;;;5063299;28;20267;-80
2023/01/26 10:17:53;;;;;;;68.68;24.73;;;;;;;;;;5065488;28;20203;-78
2023/01/26 10:20:22;;;;;;;58.05;23.42;;;;;;;;;;5080888;28;20618;-79
2023/01/26 10:22:51;;;;;;;59.72;24.35;;;;;;;;;;5062773;28;20191;-78
2023/01/26 10:25:19;;;;;;;59.97;23.90;;;;;;;;;;5062534;28;20232;-78
2023/01/26 10:27:45;;;;;;;57.83;22.48;;;;;;;;;;5059878;28;20177;-78
2023/01/26 10:30:13;;;;;;;65.82;25.10;;;;;;;;;;5044792;28;20178;-78
2023/01/26 10:32:40;;;;;;;59.38;24.45;;;;;;;;;;5026122;28;20209;-78
2023/01/26 10:35:14;;;;;;;69.28;28.80;;;;;;;;;;5073619;28;20637;-78
2023/01/26 10:37:40;;;;;;;58.65;22.23;;;;;;;;;;5072689;28;20192;-78
2023/01/26 10:40:06;;;;;;;62.42;24.40;;;;;;;;;;5023697;28;20634;-78
2023/01/26 10:42:33;;;;;;;58.45;24.30;;;;;;;;;;5072751;28;20177;-78
2023/01/26 10:45:03;;;;;;;69.55;26.63;;;;;;;;;;5034767;28;20266;-78
2023/01/26 10:47:29;;;;;;;68.28;23.80;;;;;;;;;;5072461;28;20534;-78
2023/01/26 10:50:18;;;;;;;66.30;24.52;;;;;;;;;;5057595;28;20216;-79
2023/01/26 10:53:01;;;;;;;69.63;26.05;;;;;;;;;;5051009;28;20284;-79
2023/01/26 10:55:28;;;;;;;78.15;27.55;;;;;;;;;;5034934;28;20237;-78
2023/01/26 10:57:54;;;;;;;147.40;52.85;;;;;;;;;;5031238;28;20296;-78
2023/01/26 11:00:20;;;;;;;137.13;48.70;;;;;;;;;;5045103;28;20189;-79
2023/01/26 11:02:51;;;;;;;107.73;37.33;;;;;;;;;;5072782;28;20175;-79
2023/01/26 11:05:19;;;;;;;74.93;28.27;;;;;;;;;;5059404;28;20485;-78
2023/01/26 11:07:47;;;;;;;57.80;24.02;;;;;;;;;;5059350;28;20247;-79
2023/01/26 11:10:33;;;;;;;132.70;45.45;;;;;;;;;;5058919;28;20164;-78
2023/01/26 11:13:11;;;;;;;284.17;101.43;;;;;;;;;;5058615;28;20215;-79
2023/01/26 11:15:38;;;;;;;61.53;23.38;;;;;;;;;;5076672;28;20247;-79
2023/01/26 11:18:11;;;;;;;57.47;21.60;;;;;;;;;;5059408;28;20176;-79
2023/01/26 11:20:42;;;;;;;199.40;72.90;;;;;;;;;;5058785;28;20178;-79
2023/01/26 11:23:18;;;;;;;133.90;46.22;;;;;;;;;;5076309;28;20169;-80
2023/01/26 11:25:44;;;;;;;203.55;72.55;;;;;;;;;;5058927;28;20267;-78
2023/01/26 11:28:33;;;;;;;306.67;103.05;;;;;;;;;;5058802;28;20276;-79
2023/01/26 11:31:18;;;;;;;225.38;81.47;;;;;;;;;;5050742;28;20185;-79
2023/01/26 11:34:03;;;;;;;61.33;23.30;;;;;;;;;;5058367;28;20208;-79
2023/01/26 11:36:36;;;;;;;49.03;18.23;;;;;;;;;;5058926;28;20180;-79
2023/01/26 11:39:02;;;;;;;88.80;29.00;;;;;;;;;;5075265;28;20261;-79
2023/01/26 11:41:27;;;;;;;350.17;133.60;;;;;;;;;;5076419;28;20598;-79
2023/01/26 11:44:01;;;;;;;68.13;27.40;;;;;;;;;;5043374;28;20423;-79
2023/01/26 11:46:33;;;;;;;66.20;27.98;;;;;;;;;;5072182;28;20455;-79
2023/01/26 11:49:05;;;;;;;62.80;27.50;;;;;;;;;;5072615;28;20205;-78
2023/01/26 11:51:31;;;;;;;67.45;26.73;;;;;;;;;;5056165;28;20214;-79
2023/01/26 11:54:06;;;;;;;73.10;27.27;;;;;;;;;;5071619;28;20206;-79
2023/01/26 11:56:41;;;;;;;56.95;23.00;;;;;;;;;;5071692;28;20458;-79
2023/01/26 11:59:17;;;;;;;62.15;23.33;;;;;;;;;;5056118;28;20215;-78
2023/01/26 12:01:45;;;;;;;60.50;24.63;;;;;;;;;;5071475;28;20177;-78
2023/01/26 12:04:17;;;;;;;55.85;24.15;;;;;;;;;;5071375;28;20186;-80
2023/01/26 12:06:45;;;;;;;54.78;24.35;;;;;;;;;;5055207;28;20223;-79
2023/01/26 12:09:17;;;;;;;58.85;22.92;;;;;;;;;;5056024;28;20252;-79
2023/01/26 12:11:48;;;;;;;59.08;22.25;;;;;;;;;;5055575;28;20609;-79
2023/01/26 12:14:14;;;;;;;52.22;19.45;;;;;;;;;;5071348;28;20215;-79
2023/01/26 12:16:46;;;;;;;62.88;22.58;;;;;;;;;;5055480;28;20247;-80
2023/01/26 12:19:15;;;;;;;52.83;21.30;;;;;;;;;;5071105;28;20174;-80
2023/01/26 12:21:43;;;;;;;49.83;22.85;;;;;;;;;;5070783;28;20209;-80
2023/01/26 12:24:12;;;;;;;54.95;21.60;;;;;;;;;;5070845;28;20234;-79
2023/01/26 12:26:42;;;;;;;61.38;25.38;;;;;;;;;;5071088;28;20187;-81
2023/01/26 12:29:26;;;;;;;50.22;22.35;;;;;;;;;;5070322;28;20237;-80
2023/01/26 12:31:52;;;;;;;43.88;19.15;;;;;;;;;;5070744;28;20173;-80
2023/01/26 12:34:20;;;;;;;34.30;15.05;;;;;;;;;;5070450;28;20169;-80
2023/01/26 12:36:52;;;;;;;47.60;19.55;;;;;;;;;;5070570;28;20177;-80
2023/01/26 12:39:30;;;;;;;47.67;21.48;;;;;;;;;;5055349;28;20195;-80
2023/01/26 12:42:08;;;;;;;45.30;18.92;;;;;;;;;;5071464;28;20184;-80
2023/01/26 12:44:37;;;;;;;41.90;18.83;;;;;;;;;;5070402;28;20204;-80
2023/01/26 12:47:13;;;;;;;44.83;16.58;;;;;;;;;;5055485;28;20171;-80
2023/01/26 12:49:42;;;;;;;38.17;16.33;;;;;;;;;;5070586;28;20186;-81
2023/01/26 12:52:12;;;;;;;37.60;17.10;;;;;;;;;;5070967;28;20186;-81
2023/01/26 12:54:42;;;;;;;34.33;16.70;;;;;;;;;;5070292;28;20181;-81
2023/01/26 12:57:12;;;;;;;37.90;16.13;;;;;;;;;;5071070;28;20262;-81
2023/01/26 12:59:39;;;;;;;40.17;17.90;;;;;;;;;;5055304;28;20154;-81
2023/01/26 13:02:23;;;;;;;39.17;17.00;;;;;;;;;;5054900;28;20178;-82
2023/01/26 13:04:50;;;;;;;32.05;15.07;;;;;;;;;;5052632;28;20209;-83
2023/01/26 13:07:34;;;;;;;41.47;18.17;;;;;;;;;;5065621;28;20286;-81
2023/01/26 13:10:09;;;;;;;42.55;19.70;;;;;;;;;;5064041;28;20212;-82
2023/01/26 13:12:49;;;;;;;37.70;16.83;;;;;;;;;;5050419;28;20199;-82
2023/01/26 13:15:17;;;;;;;28.88;14.30;;;;;;;;;;5070205;28;20186;-80
2023/01/26 13:17:48;;;;;;;35.45;15.27;;;;;;;;;;5055308;28;20199;-80
2023/01/26 13:20:22;;;;;;;31.40;15.02;;;;;;;;;;5072166;28;20260;-81
2023/01/26 13:22:48;;;;;;;34.80;15.82;;;;;;;;;;5070801;28;20218;-80
2023/01/26 13:25:17;;;;;;;41.60;20.10;;;;;;;;;;5054186;28;20184;-81
2023/01/26 13:27:45;;;;;;;28.95;15.45;;;;;;;;;;5070577;28;20416;-80
2023/01/26 13:30:23;;;;;;;31.70;17.00;;;;;;;;;;5070810;28;20169;-80
2023/01/26 13:32:49;;;;;;;33.13;15.40;;;;;;;;;;5070735;28;20202;-80
2023/01/26 13:35:22;;;;;;;31.80;16.60;;;;;;;;;;5055278;28;20741;-80
2023/01/26 13:38:07;;;;;;;31.65;15.45;;;;;;;;;;5070932;28;20519;-80
2023/01/26 13:40:34;;;;;;;30.15;14.23;;;;;;;;;;5070489;28;20171;-80
2023/01/26 13:43:00;;;;;;;29.13;14.20;;;;;;;;;;5055130;28;20264;-80
2023/01/26 13:45:35;;;;;;;28.58;13.90;;;;;;;;;;5070683;28;20201;-80
2023/01/26 13:48:04;;;;;;;33.10;13.45;;;;;;;;;;5068894;28;20199;-85
2023/01/26 13:50:30;;;;;;;27.67;13.90;;;;;;;;;;5063312;28;20268;-81
2023/01/26 13:52:56;;;;;;;29.63;14.43;;;;;;;;;;5066335;28;20208;-82
2023/01/26 13:55:30;;;;;;;24.50;13.18;;;;;;;;;;5049803;28;20180;-83
2023/01/26 13:58:12;;;;;;;21.85;12.38;;;;;;;;;;5066106;28;20172;-81
2023/01/26 14:00:39;;;;;;;21.45;11.43;;;;;;;;;;5037043;28;20187;-80
2023/01/26 14:03:05;;;;;;;20.73;9.57;;;;;;;;;;5058265;28;20208;-79
2023/01/26 14:05:31;;;;;;;21.90;9.95;;;;;;;;;;5056918;28;20189;-81
2023/01/26 14:07:57;;;;;;;18.50;9.63;;;;;;;;;;5040390;28;20228;-79
2023/01/26 14:10:23;;;;;;;20.15;10.30;;;;;;;;;;5056907;28;20212;-80
2023/01/26 14:12:51;;;;;;;24.60;14.55;;;;;;;;;;5058586;28;20206;-81
2023/01/26 14:15:29;;;;;;;53.42;31.45;;;;;;;;;;5040435;28;20177;-80
2023/01/26 14:18:02;;;;;;;12.13;7.22;;;;;;;;;;5040211;28;20504;-80
2023/01/26 14:20:36;;;;;;;16.45;11.00;;;;;;;;;;5040455;28;20179;-83
2023/01/26 14:23:19;;;;;;;14.13;9.40;;;;;;;;;;5039108;28;20188;-83
2023/01/26 14:25:48;;;;;;;14.45;8.82;;;;;;;;;;5056692;28;20167;-82
2023/01/26 14:28:15;;;;;;;9.38;5.90;;;;;;;;;;5058327;28;20201;-82
2023/01/26 14:30:41;;;;;;;8.50;6.22;;;;;;;;;;5040144;28;20243;-82
2023/01/26 14:33:12;;;;;;;17.10;11.07;;;;;;;;;;5040746;28;20218;-83
2023/01/26 14:35:38;;;;;;;12.77;6.57;;;;;;;;;;5041004;28;20168;-82
2023/01/26 14:38:15;;;;;;;7.97;5.68;;;;;;;;;;5058152;28;20188;-84
2023/01/26 14:40:48;;;;;;;16.02;7.10;;;;;;;;;;5040401;28;20208;-82
2023/01/26 14:43:14;;;;;;;14.52;9.68;;;;;;;;;;5040270;28;20269;-81
2023/01/26 14:45:43;;;;;;;11.60;8.55;;;;;;;;;;5040198;28;20597;-82
2023/01/26 14:48:12;;;;;;;24.95;15.38;;;;;;;;;;5039939;28;20176;-82
2023/01/26 14:50:39;;;;;;;14.30;8.95;;;;;;;;;;5058010;28;20172;-81
2023/01/26 14:53:12;;;;;;;42.17;28.90;;;;;;;;;;5040064;28;20207;-81
2023/01/26 14:55:38;;;;;;;17.23;11.75;;;;;;;;;;5058436;28;20169;-82
2023/01/26 14:58:12;;;;;;;39.57;25.50;;;;;;;;;;5057276;28;20672;-82
2023/01/26 15:00:38;;;;;;;21.88;16.27;;;;;;;;;;5057591;28;20981;-82
2023/01/26 15:03:06;;;;;;;16.20;11.55;;;;;;;;;;5057526;28;20184;-82
2023/01/26 15:05:34;;;;;;;26.48;16.25;;;;;;;;;;5057637;28;20233;-89
2023/01/26 15:08:03;;;;;;;12.88;7.25;;;;;;;;;;5056831;28;20633;-81
2023/01/26 15:10:32;;;;;;;12.02;6.70;;;;;;;;;;5057746;28;20187;-84